createdAt,value
2022-07-29T00:00:15.595Z,101383.53
2022-07-29T00:02:42.563Z,101377.78
2022-07-29T00:05:10.150Z,101370.44
2022-07-29T00:07:37.106Z,101378.91
2022-07-29T00:10:06.346Z,101384.00
2022-07-29T00:12:33.350Z,101379.03
2022-07-29T00:15:00.493Z,101375.56
2022-07-29T00:17:27.460Z,101372.75
2022-07-29T00:19:54.555Z,101370.88
2022-07-29T00:22:22.070Z,101370.34
2022-07-29T00:24:49.777Z,101368.63
2022-07-29T00:27:18.387Z,101369.53
2022-07-29T00:29:45.428Z,101361.81
2022-07-29T00:32:12.567Z,101366.44
2022-07-29T00:34:57.772Z,101368.34
2022-07-29T00:37:24.800Z,101359.94
2022-07-29T00:39:51.731Z,101361.13
2022-07-29T00:42:19.966Z,101356.22
2022-07-29T00:44:46.869Z,101357.31
2022-07-29T00:47:14.093Z,101355.03
2022-07-29T00:49:42.213Z,101351.75
2022-07-29T00:52:13.777Z,101352.75
2022-07-29T00:54:45.003Z,101344.81
2022-07-29T00:57:12.854Z,101356.22
2022-07-29T00:59:41.409Z,101338.03
2022-07-29T01:02:08.437Z,101332.66
2022-07-29T01:04:36.126Z,101343.69
2022-07-29T01:07:03.755Z,101338.06
2022-07-29T01:09:40.836Z,101335.63
2022-07-29T01:12:16.106Z,101334.81
2022-07-29T01:14:44.628Z,101338.44
2022-07-29T01:17:15.099Z,101327.66
2022-07-29T01:19:52.171Z,101330.72
2022-07-29T01:22:43.341Z,101330.66
2022-07-29T01:25:33.696Z,101331.03
2022-07-29T01:28:17.104Z,101333.72
2022-07-29T01:30:47.142Z,101331.03
2022-07-29T01:33:38.740Z,101333.72
2022-07-29T01:36:11.212Z,101320.94
2022-07-29T01:38:40.623Z,101313.22
2022-07-29T01:41:12.499Z,101322.97
2022-07-29T01:43:43.425Z,101318.38
2022-07-29T01:46:16.947Z,101315.84
2022-07-29T01:48:48.308Z,101309.88
2022-07-29T01:51:21.577Z,101317.09
2022-07-29T01:53:59.918Z,101309.38
2022-07-29T01:56:32.103Z,101317.69
2022-07-29T01:59:00.325Z,101317.59
2022-07-29T02:01:31.816Z,101316.88
2022-07-29T02:04:00.530Z,101322.84
2022-07-29T02:06:29.007Z,101304.25
2022-07-29T02:08:58.373Z,101312.31
2022-07-29T02:11:25.535Z,101321.22
2022-07-29T02:13:54.748Z,101312.19
2022-07-29T02:16:22.652Z,101312.78
2022-07-29T02:18:55.317Z,101311.47
2022-07-29T02:21:25.725Z,101304.09
2022-07-29T02:23:54.189Z,101310.06
2022-07-29T02:26:24.273Z,101308.63
2022-07-29T02:28:53.685Z,101303.47
2022-07-29T02:31:24.022Z,101302.88
2022-07-29T02:33:53.878Z,101304.88
2022-07-29T02:36:23.584Z,101306.03
2022-07-29T02:38:52.630Z,101299.72
2022-07-29T02:41:23.943Z,101306.84
2022-07-29T02:43:56.760Z,101298.50
2022-07-29T02:46:30.705Z,101300.59
2022-07-29T02:49:00.554Z,101308.53
2022-07-29T02:51:43.644Z,101306.06
2022-07-29T02:54:19.716Z,101308.41
2022-07-29T02:56:47.585Z,101297.50
2022-07-29T02:59:19.070Z,101306.91
2022-07-29T03:01:46.864Z,101311.09
2022-07-29T03:04:17.061Z,101301.69
2022-07-29T03:06:45.485Z,101309.41
2022-07-29T03:09:13.863Z,101305.09
2022-07-29T03:11:50.375Z,101298.91
2022-07-29T03:14:20.293Z,101299.25
2022-07-29T03:16:48.103Z,101305.28
2022-07-29T03:19:17.477Z,101309.00
2022-07-29T03:21:44.346Z,101307.47
2022-07-29T03:24:11.300Z,101310.50
2022-07-29T03:26:38.533Z,101314.94
2022-07-29T03:29:05.363Z,101309.53
2022-07-29T03:31:33.496Z,101316.63
2022-07-29T03:34:00.698Z,101317.19
2022-07-29T03:36:28.989Z,101315.06
2022-07-29T03:38:56.894Z,101321.72
2022-07-29T03:41:24.886Z,101322.88
2022-07-29T03:43:52.947Z,101317.81
2022-07-29T03:46:22.001Z,101315.22
2022-07-29T03:48:51.761Z,101316.03
2022-07-29T03:51:18.796Z,101313.75
2022-07-29T03:54:05.019Z,101313.09
2022-07-29T03:56:39.732Z,101316.94
2022-07-29T03:59:07.050Z,101313.69
2022-07-29T04:01:35.751Z,101317.16
2022-07-29T04:04:03.285Z,101314.50
2022-07-29T04:06:30.335Z,101315.81
2022-07-29T04:08:57.140Z,101317.75
2022-07-29T04:11:25.449Z,101319.44
2022-07-29T04:13:52.293Z,101320.72
2022-07-29T04:16:19.140Z,101324.69
2022-07-29T04:18:46.058Z,101323.41
2022-07-29T04:21:12.859Z,101328.66
2022-07-29T04:23:46.025Z,101327.56
2022-07-29T04:26:21.311Z,101330.41
2022-07-29T04:28:49.545Z,101325.91
2022-07-29T04:31:16.520Z,101330.34
2022-07-29T04:33:43.320Z,101337.94
2022-07-29T04:36:28.562Z,101335.28
2022-07-29T04:38:56.559Z,101338.75
2022-07-29T04:41:23.425Z,101342.50
2022-07-29T04:44:07.155Z,101341.50
2022-07-29T04:50:43.716Z,101352.44
2022-07-29T04:53:10.531Z,101349.44
2022-07-29T04:55:41.008Z,101350.25
2022-07-29T04:58:08.535Z,101348.75
2022-07-29T05:00:36.898Z,101347.94
2022-07-29T05:03:04.102Z,101354.31
2022-07-29T05:05:31.082Z,101355.06
2022-07-29T05:07:57.963Z,101352.88
2022-07-29T05:10:24.911Z,101350.75
2022-07-29T05:12:51.783Z,101358.97
2022-07-29T05:15:18.890Z,101362.59
2022-07-29T05:17:47.251Z,101362.59
2022-07-29T05:20:14.070Z,101358.53
2022-07-29T05:22:40.956Z,101359.28
2022-07-29T05:25:10.053Z,101360.66
2022-07-29T05:27:37.435Z,101358.22
2022-07-29T05:30:04.970Z,101359.44
2022-07-29T05:32:31.769Z,101366.22
2022-07-29T05:35:00.045Z,101366.28
2022-07-29T05:37:26.927Z,101364.34
2022-07-29T05:39:56.758Z,101383.81
2022-07-29T05:42:25.140Z,101372.94
2022-07-29T05:44:52.010Z,101387.25
2022-07-29T05:47:18.953Z,101391.59
2022-07-29T05:49:46.256Z,101405.75
2022-07-29T05:52:14.474Z,101406.72
2022-07-29T05:54:41.831Z,101404.03
2022-07-29T05:57:08.908Z,101408.91
2022-07-29T05:59:37.470Z,101408.53
2022-07-29T06:02:06.162Z,101407.72
2022-07-29T06:04:33.152Z,101409.28
2022-07-29T06:07:00.070Z,101409.63
2022-07-29T06:09:29.333Z,101415.06
2022-07-29T06:11:56.258Z,101411.69
2022-07-29T06:14:23.090Z,101413.16
2022-07-29T06:16:50.027Z,101416.09
2022-07-29T06:19:16.956Z,101425.22
2022-07-29T06:21:44.535Z,101425.03
2022-07-29T06:24:11.990Z,101431.41
2022-07-29T06:26:40.678Z,101418.69
2022-07-29T06:29:07.961Z,101423.81
2022-07-29T06:31:35.334Z,101429.25
2022-07-29T06:34:02.173Z,101431.50
2022-07-29T06:36:30.544Z,101434.56
2022-07-29T06:38:57.529Z,101436.75
2022-07-29T06:41:24.961Z,101440.13
2022-07-29T06:43:54.476Z,101441.09
2022-07-29T06:46:23.370Z,101444.66
2022-07-29T06:48:51.164Z,101440.75
2022-07-29T06:51:22.412Z,101432.31
2022-07-29T06:53:59.544Z,101434.88
2022-07-29T06:56:30.369Z,101436.28
2022-07-29T06:58:58.606Z,101445.03
2022-07-29T07:01:25.478Z,101453.81
2022-07-29T07:03:52.541Z,101452.84
2022-07-29T07:06:19.446Z,101455.31
2022-07-29T07:08:46.326Z,101454.72
2022-07-29T07:11:13.283Z,101451.66
2022-07-29T07:13:40.147Z,101450.19
2022-07-29T07:16:08.461Z,101450.84
2022-07-29T07:18:35.259Z,101450.59
2022-07-29T07:21:02.222Z,101456.88
2022-07-29T07:23:29.112Z,101455.25
2022-07-29T07:25:55.999Z,101457.66
2022-07-29T07:28:24.924Z,101459.84
2022-07-29T07:30:52.137Z,101462.00
2022-07-29T07:33:20.624Z,101469.69
2022-07-29T07:35:47.891Z,101459.91
2022-07-29T07:38:14.733Z,101460.06
2022-07-29T07:40:41.896Z,101461.81
2022-07-29T07:43:08.776Z,101472.50
2022-07-29T07:45:38.109Z,101466.59
2022-07-29T07:48:05.913Z,101464.69
2022-07-29T07:50:34.171Z,101470.00
2022-07-29T07:53:03.062Z,101473.34
2022-07-29T07:55:42.410Z,101467.50
2022-07-29T07:58:16.947Z,101470.69
2022-07-29T08:00:43.905Z,101473.53
2022-07-29T08:03:17.037Z,101469.50
2022-07-29T08:05:45.925Z,101470.56
2022-07-29T08:08:12.863Z,101466.75
2022-07-29T08:10:54.515Z,101469.84
2022-07-29T08:13:23.956Z,101472.16
2022-07-29T08:16:01.231Z,101479.56
2022-07-29T08:18:30.406Z,101467.91
2022-07-29T08:20:59.359Z,101481.00
2022-07-29T08:23:32.973Z,101478.09
2022-07-29T08:26:14.639Z,101483.75
2022-07-29T08:28:46.772Z,101479.81
2022-07-29T08:31:14.495Z,101468.59
2022-07-29T08:33:41.440Z,101473.06
2022-07-29T08:36:10.166Z,101470.50
2022-07-29T08:38:37.013Z,101464.88
2022-07-29T08:41:04.061Z,101463.47
2022-07-29T08:43:31.071Z,101467.66
2022-07-29T08:45:57.990Z,101467.16
2022-07-29T08:48:25.862Z,101466.25
2022-07-29T08:50:56.820Z,101473.09
2022-07-29T08:53:27.813Z,101465.34
2022-07-29T08:55:55.582Z,101472.56
2022-07-29T08:58:25.009Z,101474.69
2022-07-29T09:00:53.701Z,101477.88
2022-07-29T09:03:25.235Z,101474.41
2022-07-29T09:05:52.927Z,101477.25
2022-07-29T09:08:21.154Z,101480.47
2022-07-29T09:10:50.264Z,101478.44
2022-07-29T09:13:17.169Z,101476.78
2022-07-29T09:15:44.090Z,101473.88
2022-07-29T09:18:19.561Z,101473.50
2022-07-29T09:21:15.844Z,101471.56
2022-07-29T09:24:00.155Z,101467.31
2022-07-29T09:26:31.780Z,101467.44
2022-07-29T09:29:01.344Z,101473.81
2022-07-29T09:31:35.616Z,101470.28
2022-07-29T09:34:02.788Z,101484.22
2022-07-29T09:36:30.429Z,101474.38
2022-07-29T09:39:01.157Z,101469.13
2022-07-29T09:41:28.507Z,101477.63
2022-07-29T09:43:58.210Z,101477.44
2022-07-29T09:46:25.952Z,101478.63
2022-07-29T09:49:09.058Z,101472.78
2022-07-29T09:51:38.288Z,101475.53
2022-07-29T09:54:23.166Z,101474.56
2022-07-29T09:56:50.619Z,101474.09
2022-07-29T09:59:19.119Z,101473.28
2022-07-29T10:01:46.005Z,101465.03
2022-07-29T10:04:13.357Z,101474.47
2022-07-29T10:07:03.850Z,101457.56
2022-07-29T10:09:31.674Z,101468.72
2022-07-29T10:12:14.696Z,101465.59
2022-07-29T10:14:43.972Z,101463.47
2022-07-29T10:17:11.587Z,101463.22
2022-07-29T10:19:39.870Z,101460.81
2022-07-29T10:22:09.278Z,101459.81
2022-07-29T10:24:38.298Z,101461.34
2022-07-29T10:27:08.030Z,101468.88
2022-07-29T10:29:35.194Z,101466.16
2022-07-29T10:32:19.313Z,101479.53
2022-07-29T10:35:02.564Z,101477.22
2022-07-29T10:37:39.370Z,101466.88
2022-07-29T10:40:45.817Z,101477.75
2022-07-29T10:43:20.673Z,101473.66
2022-07-29T10:45:50.294Z,101472.91
2022-07-29T10:48:21.159Z,101473.84
2022-07-29T10:50:58.283Z,101472.69
2022-07-29T10:53:25.961Z,101469.81
2022-07-29T10:56:01.281Z,101469.16
2022-07-29T10:58:33.408Z,101477.81
2022-07-29T11:01:37.505Z,101465.78
2022-07-29T11:04:08.201Z,101460.25
2022-07-29T11:07:08.855Z,101464.22
2022-07-29T11:09:38.380Z,101479.03
2022-07-29T11:12:25.903Z,101471.78
2022-07-29T11:14:58.106Z,101475.75
2022-07-29T11:17:24.980Z,101471.81
2022-07-29T11:20:13.192Z,101480.59
2022-07-29T11:22:45.882Z,101469.44
2022-07-29T11:25:14.860Z,101471.22
2022-07-29T11:27:45.766Z,101469.94
2022-07-29T11:30:13.412Z,101470.56
2022-07-29T11:32:44.770Z,101474.34
2022-07-29T11:35:22.283Z,101469.78
2022-07-29T11:41:26.051Z,101473.53
2022-07-29T11:43:56.009Z,101466.94
2022-07-29T11:46:47.386Z,101473.81
2022-07-29T11:49:15.441Z,101469.50
2022-07-29T11:51:50.987Z,101477.50
2022-07-29T11:54:27.283Z,101465.19
2022-07-29T11:56:55.024Z,101475.34
2022-07-29T11:59:22.657Z,101474.78
2022-07-29T12:02:18.547Z,101477.22
2022-07-29T12:04:51.588Z,101472.59
2022-07-29T12:07:32.652Z,101462.56
2022-07-29T12:10:03.841Z,101473.63
2022-07-29T12:12:30.829Z,101475.56
2022-07-29T12:14:57.814Z,101482.31
2022-07-29T12:17:33.688Z,101469.63
2022-07-29T12:20:06.722Z,101477.00
2022-07-29T12:22:40.328Z,101477.91
2022-07-29T12:25:32.527Z,101479.69
2022-07-29T12:28:01.605Z,101475.81
2022-07-29T12:30:41.488Z,101476.63
2022-07-29T12:33:13.723Z,101477.34
2022-07-29T12:35:41.419Z,101475.84
2022-07-29T12:38:11.507Z,101470.59
2022-07-29T12:40:38.944Z,101475.34
2022-07-29T12:43:08.211Z,101464.50
2022-07-29T12:45:35.244Z,101471.66
2022-07-29T12:48:02.168Z,101471.22
2022-07-29T12:50:29.192Z,101464.41
2022-07-29T12:53:08.613Z,101474.06
2022-07-29T12:55:46.102Z,101467.91
2022-07-29T12:58:13.115Z,101488.34
2022-07-29T13:00:40.146Z,101475.34
2022-07-29T13:03:07.279Z,101469.50
2022-07-29T13:05:48.570Z,101480.91
2022-07-29T13:08:20.351Z,101468.13
2022-07-29T13:10:50.783Z,101483.53
2022-07-29T13:13:17.656Z,101480.97
2022-07-29T13:15:48.296Z,101484.50
2022-07-29T13:18:28.530Z,101487.44
2022-07-29T13:20:55.701Z,101496.28
2022-07-29T13:23:23.136Z,101488.47
2022-07-29T13:25:51.634Z,101489.88
2022-07-29T13:28:19.145Z,101488.41
2022-07-29T13:30:46.017Z,101485.53
2022-07-29T13:33:12.922Z,101489.66
2022-07-29T13:35:40.044Z,101481.03
2022-07-29T13:38:07.263Z,101475.72
2022-07-29T13:40:36.340Z,101484.19
2022-07-29T13:43:04.580Z,101487.94
2022-07-29T13:45:31.569Z,101479.03
2022-07-29T13:47:58.400Z,101481.44
2022-07-29T13:50:25.390Z,101489.59
2022-07-29T13:52:52.356Z,101480.84
2022-07-29T13:55:19.538Z,101477.63
2022-07-29T13:57:46.645Z,101474.25
2022-07-29T14:00:16.400Z,101488.75
2022-07-29T14:02:43.336Z,101482.75
2022-07-29T14:05:11.323Z,101485.78
2022-07-29T14:07:39.898Z,101487.13
2022-07-29T14:10:07.451Z,101494.91
2022-07-29T14:12:34.385Z,101489.03
2022-07-29T14:15:01.262Z,101491.31
2022-07-29T14:17:29.601Z,101500.28
2022-07-29T14:19:56.730Z,101499.84
2022-07-29T14:22:25.454Z,101500.34
2022-07-29T14:24:52.692Z,101503.19
2022-07-29T14:27:19.865Z,101496.59
2022-07-29T14:30:05.992Z,101505.63
2022-07-29T14:32:34.308Z,101508.66
2022-07-29T14:35:01.269Z,101492.03
2022-07-29T14:37:28.195Z,101491.78
2022-07-29T14:40:07.749Z,101496.03
2022-07-29T14:42:34.579Z,101508.72
2022-07-29T14:45:01.626Z,101502.63
2022-07-29T14:47:28.474Z,101499.59
2022-07-29T14:49:56.783Z,101510.63
2022-07-29T14:52:23.602Z,101500.72
2022-07-29T14:54:50.580Z,101501.53
2022-07-29T14:57:17.500Z,101497.78
2022-07-29T14:59:44.371Z,101501.66
2022-07-29T15:02:12.583Z,101497.94
2022-07-29T15:04:40.318Z,101503.84
2022-07-29T15:07:09.310Z,101497.00
2022-07-29T15:09:40.049Z,101486.56
2022-07-29T15:12:15.478Z,101498.72
2022-07-29T15:14:42.363Z,101496.75
2022-07-29T15:17:09.249Z,101499.38
2022-07-29T15:19:36.836Z,101497.31
2022-07-29T15:22:05.904Z,101507.50
2022-07-29T15:24:35.150Z,101495.88
2022-07-29T15:27:02.062Z,101500.06
2022-07-29T15:29:28.909Z,101502.13
2022-07-29T15:31:56.186Z,101497.53
2022-07-29T15:34:24.289Z,101491.47
2022-07-29T15:36:53.123Z,101503.34
2022-07-29T15:39:20.956Z,101499.09
2022-07-29T15:41:50.136Z,101499.28
2022-07-29T15:44:17.099Z,101501.47
2022-07-29T15:47:02.707Z,101488.78
2022-07-29T15:49:48.273Z,101498.03
2022-07-29T15:52:18.070Z,101507.06
2022-07-29T15:54:45.818Z,101502.22
2022-07-29T15:57:14.115Z,101513.41
2022-07-29T16:00:30.520Z,101508.16
2022-07-29T16:02:57.398Z,101514.16
2022-07-29T16:05:24.381Z,101514.94
2022-07-29T16:07:51.166Z,101523.94
2022-07-29T16:10:18.027Z,101518.63
2022-07-29T16:12:46.240Z,101518.84
2022-07-29T16:15:14.230Z,101514.09
2022-07-29T16:17:41.096Z,101525.53
2022-07-29T16:20:08.859Z,101531.50
2022-07-29T16:22:37.310Z,101507.59
2022-07-29T16:25:04.625Z,101519.03
2022-07-29T16:27:37.805Z,101515.81
2022-07-29T16:30:09.768Z,101524.41
2022-07-29T16:32:36.771Z,101515.44
2022-07-29T16:35:05.376Z,101519.94
2022-07-29T16:37:35.550Z,101521.91
2022-07-29T16:40:02.548Z,101520.75
2022-07-29T16:42:46.201Z,101524.44
2022-07-29T16:45:15.905Z,101515.09
2022-07-29T16:47:42.768Z,101526.06
2022-07-29T16:50:10.064Z,101534.59
2022-07-29T16:52:37.694Z,101523.66
2022-07-29T16:55:05.543Z,101537.47
2022-07-29T16:57:32.584Z,101515.91
2022-07-29T16:59:59.477Z,101521.59
2022-07-29T17:02:27.861Z,101520.78
2022-07-29T17:04:57.943Z,101508.94
2022-07-29T17:07:24.893Z,101519.09
2022-07-29T17:09:55.572Z,101510.53
2022-07-29T17:12:23.268Z,101524.78
2022-07-29T17:14:50.193Z,101525.56
2022-07-29T17:17:20.973Z,101516.25
2022-07-29T17:20:09.966Z,101524.03
2022-07-29T17:22:37.269Z,101528.47
2022-07-29T17:25:04.782Z,101528.06
2022-07-29T17:27:32.266Z,101543.06
2022-07-29T17:30:11.592Z,101527.13
2022-07-29T17:32:39.983Z,101532.06
2022-07-29T17:35:28.210Z,101529.91
2022-07-29T17:37:55.413Z,101525.84
2022-07-29T17:40:22.729Z,101527.06
2022-07-29T17:42:49.675Z,101520.59
2022-07-29T17:45:16.756Z,101521.81
2022-07-29T17:47:45.042Z,101524.66
2022-07-29T17:50:13.590Z,101526.72
2022-07-29T17:52:40.831Z,101525.09
2022-07-29T17:55:10.305Z,101534.00
2022-07-29T17:57:37.447Z,101528.91
2022-07-29T18:00:08.587Z,101543.13
2022-07-29T18:02:37.701Z,101534.16
2022-07-29T18:05:05.390Z,101538.59
2022-07-29T18:07:33.826Z,101535.00
2022-07-29T18:10:01.006Z,101546.72
2022-07-29T18:12:28.440Z,101538.09
2022-07-29T18:14:55.224Z,101535.88
2022-07-29T18:17:22.021Z,101542.34
2022-07-29T18:20:10.594Z,101546.63
2022-07-29T18:22:38.883Z,101541.81
2022-07-29T18:25:06.196Z,101557.13
2022-07-29T18:27:33.088Z,101550.53
2022-07-29T18:30:00.115Z,101559.06
2022-07-29T18:32:31.743Z,101564.75
2022-07-29T18:35:02.532Z,101571.63
2022-07-29T18:38:01.866Z,101577.19
2022-07-29T18:40:18.731Z,101578.31
2022-07-29T18:42:45.595Z,101582.63
2022-07-29T18:45:12.555Z,101591.28
2022-07-29T18:47:49.007Z,101584.06
2022-07-29T18:50:16.750Z,101592.31
2022-07-29T18:52:46.044Z,101591.03
2022-07-29T18:55:13.861Z,101597.59
2022-07-29T18:57:56.192Z,101598.13
2022-07-29T19:00:24.601Z,101588.69
2022-07-29T19:02:52.735Z,101599.91
2022-07-29T19:05:19.948Z,101600.22
2022-07-29T19:07:46.860Z,101606.59
2022-07-29T19:10:13.780Z,101608.56
2022-07-29T19:12:42.537Z,101593.09
2022-07-29T19:15:10.720Z,101601.44
2022-07-29T19:17:38.711Z,101610.88
2022-07-29T19:20:07.354Z,101611.63
2022-07-29T19:22:34.336Z,101611.63
2022-07-29T19:25:01.182Z,101612.69
2022-07-29T19:27:28.062Z,101607.16
2022-07-29T19:29:59.147Z,101599.22
2022-07-29T19:32:26.169Z,101602.50
2022-07-29T19:35:11.838Z,101614.13
2022-07-29T19:37:38.709Z,101608.13
2022-07-29T19:40:07.215Z,101606.88
2022-07-29T19:42:34.200Z,101612.38
2022-07-29T19:45:02.408Z,101598.03
2022-07-29T19:47:29.239Z,101607.91
2022-07-29T19:49:56.486Z,101608.66
2022-07-29T19:52:23.393Z,101611.94
2022-07-29T19:54:50.254Z,101614.66
2022-07-29T19:57:17.085Z,101613.09
2022-07-29T19:59:44.209Z,101625.00
2022-07-29T20:02:13.118Z,101633.38
2022-07-29T20:04:40.366Z,101632.22
2022-07-29T20:07:07.374Z,101640.34
2022-07-29T20:09:34.777Z,101649.28
2022-07-29T20:12:01.670Z,101646.34
2022-07-29T20:14:28.684Z,101654.94
2022-07-29T20:16:55.529Z,101647.22
2022-07-29T20:19:24.028Z,101656.34
2022-07-29T20:21:51.549Z,101653.34
2022-07-29T20:24:18.425Z,101647.59
2022-07-29T20:26:45.232Z,101643.50
2022-07-29T20:29:12.137Z,101636.16
2022-07-29T20:31:38.995Z,101645.63
2022-07-29T20:34:05.938Z,101633.31
2022-07-29T20:36:34.143Z,101625.13
2022-07-29T20:39:01.075Z,101620.09
2022-07-29T20:41:29.203Z,101616.81
2022-07-29T20:43:56.213Z,101619.75
2022-07-29T20:46:23.273Z,101616.25
2022-07-29T20:48:50.568Z,101619.06
2022-07-29T20:51:17.430Z,101620.84
2022-07-29T20:53:45.769Z,101621.88
2022-07-29T20:56:12.826Z,101620.09
2022-07-29T20:58:40.722Z,101623.66
2022-07-29T21:01:07.913Z,101617.81
2022-07-29T21:03:34.995Z,101615.41
2022-07-29T21:06:02.586Z,101625.78
2022-07-29T21:08:29.522Z,101617.19
2022-07-29T21:10:57.871Z,101625.41
2022-07-29T21:13:25.646Z,101635.19
2022-07-29T21:15:55.803Z,101639.44
2022-07-29T21:18:32.483Z,101641.53
2022-07-29T21:21:01.024Z,101634.50
2022-07-29T21:23:28.361Z,101634.78
2022-07-29T21:25:55.780Z,101646.63
2022-07-29T21:28:27.102Z,101647.22
2022-07-29T21:30:54.163Z,101641.59
2022-07-29T21:33:21.080Z,101647.78
2022-07-29T21:38:35.357Z,101647.22
2022-07-29T21:41:03.009Z,101641.38
2022-07-29T21:43:31.366Z,101638.09
2022-07-29T21:45:59.472Z,101648.38
2022-07-29T21:48:27.891Z,101650.03
2022-07-29T21:50:55.000Z,101653.56
2022-07-29T21:53:22.896Z,101656.59
2022-07-29T21:55:50.738Z,101655.31
2022-07-29T21:58:18.132Z,101648.97
2022-07-29T22:00:47.221Z,101644.53
2022-07-29T22:03:14.123Z,101642.28
2022-07-29T22:05:41.124Z,101640.47
2022-07-29T22:08:08.177Z,101639.88
2022-07-29T22:10:35.679Z,101652.53
2022-07-29T22:13:03.373Z,101643.81
2022-07-29T22:15:30.833Z,101645.81
2022-07-29T22:17:59.307Z,101645.81
2022-07-29T22:20:26.229Z,101647.44
2022-07-29T22:22:53.405Z,101642.38
2022-07-29T22:25:20.985Z,101639.25
2022-07-29T22:27:48.139Z,101634.25
2022-07-29T22:30:15.580Z,101641.25
2022-07-29T22:32:42.494Z,101639.97
2022-07-29T22:35:10.889Z,101642.03
2022-07-29T22:37:37.770Z,101647.88
2022-07-29T22:40:05.825Z,101645.16
2022-07-29T22:42:32.693Z,101647.97
2022-07-29T22:44:59.542Z,101647.13
2022-07-29T22:47:46.679Z,101650.41
2022-07-29T22:50:14.850Z,101650.16
2022-07-29T22:52:41.701Z,101649.34
2022-07-29T22:55:09.379Z,101648.22
2022-07-29T22:57:36.224Z,101655.72
2022-07-29T23:00:03.902Z,101656.91
2022-07-29T23:02:30.751Z,101648.84
2022-07-29T23:04:57.682Z,101648.63
2022-07-29T23:07:25.936Z,101649.59
2022-07-29T23:09:52.832Z,101641.56
2022-07-29T23:12:19.898Z,101645.28
2022-07-29T23:14:46.694Z,101647.59
2022-07-29T23:17:13.577Z,101642.88
2022-07-29T23:19:40.432Z,101650.00
2022-07-29T23:22:07.280Z,101640.50
2022-07-29T23:24:35.458Z,101641.16
2022-07-29T23:27:02.765Z,101649.72
2022-07-29T23:29:32.784Z,101638.31
2022-07-29T23:32:03.312Z,101637.63
2022-07-29T23:34:30.096Z,101634.19
2022-07-29T23:36:56.952Z,101636.50
2022-07-29T23:39:23.797Z,101639.84
2022-07-29T23:41:51.982Z,101645.84
2022-07-29T23:44:18.773Z,101643.25
2022-07-29T23:46:45.627Z,101647.22
2022-07-29T23:49:13.744Z,101644.28
2022-07-29T23:51:40.761Z,101653.50
2022-07-29T23:54:07.727Z,101653.66
2022-07-29T23:56:34.467Z,101647.09
2022-07-29T23:59:05.836Z,101656.78
